Terminal Aerodrome Forecast
Issued by NWS Shreveport, LA

Home | Current Version | Previous Version | Text Only | Print | Product List | Glossary On
Versions: 1 2 3 4 5 6 7 8 9 10 11 12 13 14 15 16
000
FTUS44 KSHV 281100 RRA
TAFTXK
TAF
KTXK 281140Z 2812/2912 28004KT P6SM FEW007 OVC029
      TEMPO 2812/2815 5SM -RA BR OVC007
     FM281500 35004KT 6SM BR OVC015
     FM281800 36006KT P6SM OVC015
     FM282200 03003KT P6SM OVC020
     FM290400 05003KT P6SM OVC050
     FM290900 05003KT P6SM OVC025=

USA.gov is the U.S. government's official web portal to all federal, state and local government web resources and services.